sensor_id;sensor_type;location;lat;lon;timestamp;P1;durP1;ratioP1;P2;durP2;ratioP2
9080;SDS011;13509;50.760;6.080;2023-07-16T00:00:39;2.87;;;1.73;;
9080;SDS011;13509;50.760;6.080;2023-07-16T00:03:07;3.00;;;1.80;;
9080;SDS011;13509;50.760;6.080;2023-07-16T00:05:37;3.77;;;1.97;;
9080;SDS011;13509;50.760;6.080;2023-07-16T00:08:05;3.40;;;1.93;;
9080;SDS011;13509;50.760;6.080;2023-07-16T00:10:34;4.83;;;1.90;;
9080;SDS011;13509;50.760;6.080;2023-07-16T00:13:03;3.60;;;2.03;;
9080;SDS011;13509;50.760;6.080;2023-07-16T00:15:31;2.60;;;1.80;;
9080;SDS011;13509;50.760;6.080;2023-07-16T00:17:59;3.83;;;2.10;;
9080;SDS011;13509;50.760;6.080;2023-07-16T00:20:28;2.10;;;1.80;;
9080;SDS011;13509;50.760;6.080;2023-07-16T00:22:58;5.17;;;2.10;;
9080;SDS011;13509;50.760;6.080;2023-07-16T00:25:26;3.50;;;1.87;;
9080;SDS011;13509;50.760;6.080;2023-07-16T00:27:54;6.77;;;2.17;;
9080;SDS011;13509;50.760;6.080;2023-07-16T00:30:23;4.50;;;1.93;;
9080;SDS011;13509;50.760;6.080;2023-07-16T00:32:51;4.30;;;1.77;;
9080;SDS011;13509;50.760;6.080;2023-07-16T00:35:19;5.87;;;2.20;;
9080;SDS011;13509;50.760;6.080;2023-07-16T00:37:48;5.77;;;2.20;;
9080;SDS011;13509;50.760;6.080;2023-07-16T00:40:18;4.57;;;2.07;;
9080;SDS011;13509;50.760;6.080;2023-07-16T00:42:46;6.77;;;2.10;;
9080;SDS011;13509;50.760;6.080;2023-07-16T00:45:15;6.83;;;2.30;;
9080;SDS011;13509;50.760;6.080;2023-07-16T00:47:43;4.33;;;2.20;;
9080;SDS011;13509;50.760;6.080;2023-07-16T00:50:12;4.23;;;2.00;;
9080;SDS011;13509;50.760;6.080;2023-07-16T00:52:41;7.60;;;2.47;;
9080;SDS011;13509;50.760;6.080;2023-07-16T00:55:10;3.80;;;1.87;;
9080;SDS011;13509;50.760;6.080;2023-07-16T00:57:40;4.60;;;2.30;;
9080;SDS011;13509;50.760;6.080;2023-07-16T01:00:09;6.97;;;2.17;;
9080;SDS011;13509;50.760;6.080;2023-07-16T01:02:38;7.90;;;2.17;;
9080;SDS011;13509;50.760;6.080;2023-07-16T01:05:06;3.43;;;2.20;;
9080;SDS011;13509;50.760;6.080;2023-07-16T01:07:35;5.33;;;2.37;;
9080;SDS011;13509;50.760;6.080;2023-07-16T01:10:05;4.40;;;1.90;;
9080;SDS011;13509;50.760;6.080;2023-07-16T01:12:34;4.00;;;2.30;;
9080;SDS011;13509;50.760;6.080;2023-07-16T01:15:04;6.53;;;2.10;;
9080;SDS011;13509;50.760;6.080;2023-07-16T01:17:33;7.30;;;2.50;;
9080;SDS011;13509;50.760;6.080;2023-07-16T01:20:01;7.97;;;2.40;;
9080;SDS011;13509;50.760;6.080;2023-07-16T01:22:50;6.47;;;2.33;;
9080;SDS011;13509;50.760;6.080;2023-07-16T01:25:26;5.87;;;2.10;;
9080;SDS011;13509;50.760;6.080;2023-07-16T01:28:05;3.60;;;2.00;;
9080;SDS011;13509;50.760;6.080;2023-07-16T01:30:36;5.30;;;2.10;;
9080;SDS011;13509;50.760;6.080;2023-07-16T01:33:05;4.97;;;2.00;;
9080;SDS011;13509;50.760;6.080;2023-07-16T01:35:36;5.00;;;2.10;;
9080;SDS011;13509;50.760;6.080;2023-07-16T01:38:05;2.40;;;1.70;;
9080;SDS011;13509;50.760;6.080;2023-07-16T01:40:34;2.33;;;1.50;;
9080;SDS011;13509;50.760;6.080;2023-07-16T01:43:02;8.23;;;2.13;;
9080;SDS011;13509;50.760;6.080;2023-07-16T01:45:31;5.17;;;2.10;;
9080;SDS011;13509;50.760;6.080;2023-07-16T01:48:03;5.33;;;1.77;;
9080;SDS011;13509;50.760;6.080;2023-07-16T01:50:33;6.30;;;2.00;;
9080;SDS011;13509;50.760;6.080;2023-07-16T01:53:02;4.00;;;1.73;;
9080;SDS011;13509;50.760;6.080;2023-07-16T01:55:30;3.37;;;2.00;;
9080;SDS011;13509;50.760;6.080;2023-07-16T01:57:58;4.30;;;2.00;;
9080;SDS011;13509;50.760;6.080;2023-07-16T02:00:27;6.03;;;2.07;;
9080;SDS011;13509;50.760;6.080;2023-07-16T02:02:55;5.33;;;2.17;;
9080;SDS011;13509;50.760;6.080;2023-07-16T02:05:25;5.37;;;1.80;;
9080;SDS011;13509;50.760;6.080;2023-07-16T02:07:53;4.80;;;1.80;;
9080;SDS011;13509;50.760;6.080;2023-07-16T02:10:21;6.33;;;2.60;;
9080;SDS011;13509;50.760;6.080;2023-07-16T02:12:49;2.80;;;1.90;;
9080;SDS011;13509;50.760;6.080;2023-07-16T02:15:18;3.07;;;1.87;;
9080;SDS011;13509;50.760;6.080;2023-07-16T02:17:47;6.57;;;2.07;;
9080;SDS011;13509;50.760;6.080;2023-07-16T02:20:15;6.07;;;1.87;;
9080;SDS011;13509;50.760;6.080;2023-07-16T02:22:45;5.47;;;2.10;;
9080;SDS011;13509;50.760;6.080;2023-07-16T02:25:13;4.83;;;1.70;;
9080;SDS011;13509;50.760;6.080;2023-07-16T02:27:41;5.33;;;2.00;;
9080;SDS011;13509;50.760;6.080;2023-07-16T02:30:09;4.87;;;1.80;;
9080;SDS011;13509;50.760;6.080;2023-07-16T02:32:38;6.90;;;2.07;;
9080;SDS011;13509;50.760;6.080;2023-07-16T02:35:06;5.43;;;1.97;;
9080;SDS011;13509;50.760;6.080;2023-07-16T02:37:35;4.40;;;2.13;;
9080;SDS011;13509;50.760;6.080;2023-07-16T02:40:05;4.17;;;2.30;;
9080;SDS011;13509;50.760;6.080;2023-07-16T02:42:34;5.33;;;2.00;;
9080;SDS011;13509;50.760;6.080;2023-07-16T02:45:02;5.60;;;2.13;;
9080;SDS011;13509;50.760;6.080;2023-07-16T02:47:30;7.53;;;2.50;;
9080;SDS011;13509;50.760;6.080;2023-07-16T02:49:59;4.30;;;2.30;;
9080;SDS011;13509;50.760;6.080;2023-07-16T02:52:27;6.70;;;2.37;;
9080;SDS011;13509;50.760;6.080;2023-07-16T02:54:55;9.93;;;3.23;;
9080;SDS011;13509;50.760;6.080;2023-07-16T02:57:25;8.07;;;2.23;;
9080;SDS011;13509;50.760;6.080;2023-07-16T02:59:53;4.40;;;2.10;;
9080;SDS011;13509;50.760;6.080;2023-07-16T03:02:21;4.33;;;2.30;;
9080;SDS011;13509;50.760;6.080;2023-07-16T03:04:50;11.63;;;2.57;;
9080;SDS011;13509;50.760;6.080;2023-07-16T03:07:18;5.20;;;2.20;;
9080;SDS011;13509;50.760;6.080;2023-07-16T03:09:47;4.53;;;2.53;;
9080;SDS011;13509;50.760;6.080;2023-07-16T03:12:15;9.97;;;2.60;;
9080;SDS011;13509;50.760;6.080;2023-07-16T03:14:45;8.73;;;2.47;;
9080;SDS011;13509;50.760;6.080;2023-07-16T03:17:13;7.43;;;2.53;;
9080;SDS011;13509;50.760;6.080;2023-07-16T03:19:41;6.33;;;2.40;;
9080;SDS011;13509;50.760;6.080;2023-07-16T03:22:09;5.80;;;2.20;;
9080;SDS011;13509;50.760;6.080;2023-07-16T03:24:38;6.93;;;2.40;;
9080;SDS011;13509;50.760;6.080;2023-07-16T03:27:06;7.30;;;2.63;;
9080;SDS011;13509;50.760;6.080;2023-07-16T03:29:45;6.27;;;2.50;;
9080;SDS011;13509;50.760;6.080;2023-07-16T03:32:13;4.60;;;2.07;;
9080;SDS011;13509;50.760;6.080;2023-07-16T03:34:41;8.43;;;2.40;;
9080;SDS011;13509;50.760;6.080;2023-07-16T03:37:10;5.57;;;2.47;;
9080;SDS011;13509;50.760;6.080;2023-07-16T03:39:38;5.93;;;2.40;;
9080;SDS011;13509;50.760;6.080;2023-07-16T03:42:06;6.57;;;2.90;;
9080;SDS011;13509;50.760;6.080;2023-07-16T03:44:34;10.10;;;2.77;;
9080;SDS011;13509;50.760;6.080;2023-07-16T03:47:04;9.13;;;2.30;;
9080;SDS011;13509;50.760;6.080;2023-07-16T03:49:32;8.97;;;3.00;;
9080;SDS011;13509;50.760;6.080;2023-07-16T03:52:01;9.13;;;2.50;;
9080;SDS011;13509;50.760;6.080;2023-07-16T03:54:29;6.10;;;3.10;;
9080;SDS011;13509;50.760;6.080;2023-07-16T03:56:57;8.30;;;3.30;;
9080;SDS011;13509;50.760;6.080;2023-07-16T03:59:25;6.63;;;2.50;;
9080;SDS011;13509;50.760;6.080;2023-07-16T04:01:54;5.60;;;2.80;;
9080;SDS011;13509;50.760;6.080;2023-07-16T04:04:23;5.30;;;2.40;;
9080;SDS011;13509;50.760;6.080;2023-07-16T04:06:52;9.27;;;3.20;;
9080;SDS011;13509;50.760;6.080;2023-07-16T04:09:20;5.23;;;2.87;;
9080;SDS011;13509;50.760;6.080;2023-07-16T04:11:49;7.70;;;2.60;;
9080;SDS011;13509;50.760;6.080;2023-07-16T04:14:17;6.50;;;3.07;;
9080;SDS011;13509;50.760;6.080;2023-07-16T04:16:45;6.40;;;2.70;;
9080;SDS011;13509;50.760;6.080;2023-07-16T04:19:13;7.57;;;3.00;;
9080;SDS011;13509;50.760;6.080;2023-07-16T04:21:43;6.30;;;2.90;;
9080;SDS011;13509;50.760;6.080;2023-07-16T04:24:11;8.43;;;3.00;;
9080;SDS011;13509;50.760;6.080;2023-07-16T04:26:39;4.93;;;2.80;;
9080;SDS011;13509;50.760;6.080;2023-07-16T04:29:08;9.70;;;3.27;;
9080;SDS011;13509;50.760;6.080;2023-07-16T04:31:36;6.97;;;2.90;;
9080;SDS011;13509;50.760;6.080;2023-07-16T04:34:04;7.60;;;3.00;;
9080;SDS011;13509;50.760;6.080;2023-07-16T04:36:32;6.50;;;2.90;;
9080;SDS011;13509;50.760;6.080;2023-07-16T04:39:02;3.47;;;2.40;;
9080;SDS011;13509;50.760;6.080;2023-07-16T04:41:30;7.83;;;2.70;;
9080;SDS011;13509;50.760;6.080;2023-07-16T04:43:58;5.73;;;2.50;;
9080;SDS011;13509;50.760;6.080;2023-07-16T04:46:27;10.27;;;3.27;;
9080;SDS011;13509;50.760;6.080;2023-07-16T04:48:56;5.47;;;2.90;;
9080;SDS011;13509;50.760;6.080;2023-07-16T04:51:24;4.80;;;2.50;;
9080;SDS011;13509;50.760;6.080;2023-07-16T04:53:53;8.70;;;3.40;;
9080;SDS011;13509;50.760;6.080;2023-07-16T04:56:22;5.80;;;2.60;;
9080;SDS011;13509;50.760;6.080;2023-07-16T04:58:50;5.30;;;2.73;;
9080;SDS011;13509;50.760;6.080;2023-07-16T05:01:19;4.67;;;3.10;;
9080;SDS011;13509;50.760;6.080;2023-07-16T05:03:47;5.80;;;3.00;;
9080;SDS011;13509;50.760;6.080;2023-07-16T05:06:15;8.57;;;3.30;;
9080;SDS011;13509;50.760;6.080;2023-07-16T05:08:44;8.00;;;3.67;;
9080;SDS011;13509;50.760;6.080;2023-07-16T05:11:13;8.23;;;3.93;;
9080;SDS011;13509;50.760;6.080;2023-07-16T05:13:43;8.63;;;3.70;;
9080;SDS011;13509;50.760;6.080;2023-07-16T05:16:11;7.03;;;3.83;;
9080;SDS011;13509;50.760;6.080;2023-07-16T05:18:40;13.33;;;4.10;;
9080;SDS011;13509;50.760;6.080;2023-07-16T05:21:08;9.27;;;3.53;;
9080;SDS011;13509;50.760;6.080;2023-07-16T05:23:36;8.20;;;3.50;;
9080;SDS011;13509;50.760;6.080;2023-07-16T05:26:05;10.77;;;4.10;;
9080;SDS011;13509;50.760;6.080;2023-07-16T05:28:33;8.90;;;3.70;;
9080;SDS011;13509;50.760;6.080;2023-07-16T05:31:03;8.10;;;3.70;;
9080;SDS011;13509;50.760;6.080;2023-07-16T05:33:32;8.27;;;3.63;;
9080;SDS011;13509;50.760;6.080;2023-07-16T05:36:00;6.57;;;3.17;;
9080;SDS011;13509;50.760;6.080;2023-07-16T05:38:28;7.23;;;4.13;;
9080;SDS011;13509;50.760;6.080;2023-07-16T05:40:59;6.17;;;3.43;;
9080;SDS011;13509;50.760;6.080;2023-07-16T05:43:27;6.63;;;3.67;;
9080;SDS011;13509;50.760;6.080;2023-07-16T05:45:56;7.97;;;3.80;;
9080;SDS011;13509;50.760;6.080;2023-07-16T05:48:26;9.37;;;3.83;;
9080;SDS011;13509;50.760;6.080;2023-07-16T05:50:54;13.07;;;4.57;;
9080;SDS011;13509;50.760;6.080;2023-07-16T05:53:22;9.03;;;3.97;;
9080;SDS011;13509;50.760;6.080;2023-07-16T05:55:51;9.33;;;3.67;;
9080;SDS011;13509;50.760;6.080;2023-07-16T05:58:19;9.07;;;4.07;;
9080;SDS011;13509;50.760;6.080;2023-07-16T06:00:47;7.27;;;3.83;;
9080;SDS011;13509;50.760;6.080;2023-07-16T06:03:16;6.50;;;3.60;;
9080;SDS011;13509;50.760;6.080;2023-07-16T06:05:46;6.77;;;3.60;;
9080;SDS011;13509;50.760;6.080;2023-07-16T06:08:14;6.23;;;3.80;;
9080;SDS011;13509;50.760;6.080;2023-07-16T06:10:43;10.87;;;3.60;;
9080;SDS011;13509;50.760;6.080;2023-07-16T06:13:11;5.33;;;3.63;;
9080;SDS011;13509;50.760;6.080;2023-07-16T06:15:39;7.57;;;3.60;;
9080;SDS011;13509;50.760;6.080;2023-07-16T06:18:07;8.77;;;3.67;;
9080;SDS011;13509;50.760;6.080;2023-07-16T06:20:35;5.90;;;3.75;;
9080;SDS011;13509;50.760;6.080;2023-07-16T06:23:05;12.75;;;3.90;;
9080;SDS011;13509;50.760;6.080;2023-07-16T06:25:33;7.00;;;3.17;;
9080;SDS011;13509;50.760;6.080;2023-07-16T06:28:02;6.97;;;3.80;;
9080;SDS011;13509;50.760;6.080;2023-07-16T06:30:30;8.50;;;3.70;;
9080;SDS011;13509;50.760;6.080;2023-07-16T06:32:59;9.27;;;3.75;;
9080;SDS011;13509;50.760;6.080;2023-07-16T06:35:28;5.25;;;3.40;;
9080;SDS011;13509;50.760;6.080;2023-07-16T06:37:56;8.20;;;3.47;;
9080;SDS011;13509;50.760;6.080;2023-07-16T06:40:26;6.20;;;3.58;;
9080;SDS011;13509;50.760;6.080;2023-07-16T06:42:54;6.43;;;3.60;;
9080;SDS011;13509;50.760;6.080;2023-07-16T06:45:22;5.68;;;3.42;;
9080;SDS011;13509;50.760;6.080;2023-07-16T06:47:50;5.95;;;3.50;;
9080;SDS011;13509;50.760;6.080;2023-07-16T06:50:19;7.63;;;3.80;;
9080;SDS011;13509;50.760;6.080;2023-07-16T06:52:47;7.60;;;3.70;;
9080;SDS011;13509;50.760;6.080;2023-07-16T06:55:15;7.72;;;3.15;;
9080;SDS011;13509;50.760;6.080;2023-07-16T06:57:45;8.88;;;4.00;;
9080;SDS011;13509;50.760;6.080;2023-07-16T07:00:13;10.35;;;3.65;;
9080;SDS011;13509;50.760;6.080;2023-07-16T07:02:42;7.80;;;3.72;;
9080;SDS011;13509;50.760;6.080;2023-07-16T07:05:10;5.88;;;3.05;;
9080;SDS011;13509;50.760;6.080;2023-07-16T07:07:39;8.93;;;3.63;;
9080;SDS011;13509;50.760;6.080;2023-07-16T07:10:08;6.90;;;3.58;;
9080;SDS011;13509;50.760;6.080;2023-07-16T07:12:37;5.90;;;3.75;;
9080;SDS011;13509;50.760;6.080;2023-07-16T07:15:07;5.82;;;3.35;;
9080;SDS011;13509;50.760;6.080;2023-07-16T07:17:36;6.50;;;3.35;;
9080;SDS011;13509;50.760;6.080;2023-07-16T07:20:04;4.85;;;3.33;;
9080;SDS011;13509;50.760;6.080;2023-07-16T07:22:33;10.82;;;3.70;;
9080;SDS011;13509;50.760;6.080;2023-07-16T07:25:02;6.05;;;3.38;;
9080;SDS011;13509;50.760;6.080;2023-07-16T07:27:30;8.02;;;3.63;;
9080;SDS011;13509;50.760;6.080;2023-07-16T07:29:58;6.43;;;3.40;;
9080;SDS011;13509;50.760;6.080;2023-07-16T07:32:28;8.95;;;3.42;;
9080;SDS011;13509;50.760;6.080;2023-07-16T07:34:57;7.47;;;3.33;;
9080;SDS011;13509;50.760;6.080;2023-07-16T07:37:29;5.60;;;3.42;;
9080;SDS011;13509;50.760;6.080;2023-07-16T07:39:58;5.90;;;3.25;;
9080;SDS011;13509;50.760;6.080;2023-07-16T07:42:26;5.10;;;3.40;;
9080;SDS011;13509;50.760;6.080;2023-07-16T07:44:56;5.72;;;3.50;;
9080;SDS011;13509;50.760;6.080;2023-07-16T07:47:24;5.53;;;3.30;;
9080;SDS011;13509;50.760;6.080;2023-07-16T07:49:54;7.03;;;3.97;;
9080;SDS011;13509;50.760;6.080;2023-07-16T07:52:22;6.50;;;3.53;;
9080;SDS011;13509;50.760;6.080;2023-07-16T07:54:50;6.10;;;3.50;;
9080;SDS011;13509;50.760;6.080;2023-07-16T07:57:19;5.70;;;3.50;;
9080;SDS011;13509;50.760;6.080;2023-07-16T07:59:47;8.48;;;3.90;;
9080;SDS011;13509;50.760;6.080;2023-07-16T08:02:17;6.38;;;3.53;;
9080;SDS011;13509;50.760;6.080;2023-07-16T08:04:47;4.47;;;3.30;;
9080;SDS011;13509;50.760;6.080;2023-07-16T08:07:17;5.50;;;3.20;;
9080;SDS011;13509;50.760;6.080;2023-07-16T08:09:45;8.93;;;3.50;;
9080;SDS011;13509;50.760;6.080;2023-07-16T08:12:14;6.35;;;3.38;;
9080;SDS011;13509;50.760;6.080;2023-07-16T08:14:42;5.75;;;3.20;;
9080;SDS011;13509;50.760;6.080;2023-07-16T08:17:10;6.03;;;3.22;;
9080;SDS011;13509;50.760;6.080;2023-07-16T08:19:38;8.75;;;3.40;;
9080;SDS011;13509;50.760;6.080;2023-07-16T08:22:07;5.30;;;3.55;;
9080;SDS011;13509;50.760;6.080;2023-07-16T08:24:36;7.70;;;3.30;;
9080;SDS011;13509;50.760;6.080;2023-07-16T08:27:05;8.18;;;3.40;;
9080;SDS011;13509;50.760;6.080;2023-07-16T08:29:34;6.10;;;3.17;;
9080;SDS011;13509;50.760;6.080;2023-07-16T08:32:03;7.28;;;3.20;;
9080;SDS011;13509;50.760;6.080;2023-07-16T08:34:31;5.35;;;3.20;;
9080;SDS011;13509;50.760;6.080;2023-07-16T08:37:00;6.45;;;3.50;;
9080;SDS011;13509;50.760;6.080;2023-07-16T08:39:28;5.03;;;3.33;;
9080;SDS011;13509;50.760;6.080;2023-07-16T08:41:57;7.60;;;3.28;;
9080;SDS011;13509;50.760;6.080;2023-07-16T08:44:26;6.05;;;3.47;;
9080;SDS011;13509;50.760;6.080;2023-07-16T08:46:54;5.65;;;3.22;;
9080;SDS011;13509;50.760;6.080;2023-07-16T08:49:23;7.50;;;3.58;;
9080;SDS011;13509;50.760;6.080;2023-07-16T08:51:51;6.43;;;3.05;;
9080;SDS011;13509;50.760;6.080;2023-07-16T08:54:19;4.25;;;3.15;;
9080;SDS011;13509;50.760;6.080;2023-07-16T08:56:48;6.45;;;3.20;;
9080;SDS011;13509;50.760;6.080;2023-07-16T08:59:17;7.22;;;3.40;;
9080;SDS011;13509;50.760;6.080;2023-07-16T09:01:46;5.75;;;3.20;;
9080;SDS011;13509;50.760;6.080;2023-07-16T09:04:15;6.40;;;3.25;;
9080;SDS011;13509;50.760;6.080;2023-07-16T09:06:44;6.45;;;3.22;;
9080;SDS011;13509;50.760;6.080;2023-07-16T09:09:13;7.57;;;3.50;;
9080;SDS011;13509;50.760;6.080;2023-07-16T09:11:47;6.55;;;2.97;;
9080;SDS011;13509;50.760;6.080;2023-07-16T09:14:18;6.43;;;3.53;;
9080;SDS011;13509;50.760;6.080;2023-07-16T09:16:49;5.70;;;3.58;;
9080;SDS011;13509;50.760;6.080;2023-07-16T09:19:18;4.78;;;3.03;;
9080;SDS011;13509;50.760;6.080;2023-07-16T09:21:46;5.25;;;3.20;;
9080;SDS011;13509;50.760;6.080;2023-07-16T09:24:15;6.32;;;3.05;;
9080;SDS011;13509;50.760;6.080;2023-07-16T09:26:49;5.43;;;3.30;;
9080;SDS011;13509;50.760;6.080;2023-07-16T09:29:19;5.43;;;3.40;;
9080;SDS011;13509;50.760;6.080;2023-07-16T09:31:52;4.35;;;2.80;;
9080;SDS011;13509;50.760;6.080;2023-07-16T09:34:21;7.53;;;3.63;;
9080;SDS011;13509;50.760;6.080;2023-07-16T09:36:49;5.65;;;3.03;;
9080;SDS011;13509;50.760;6.080;2023-07-16T09:39:17;4.95;;;3.25;;
9080;SDS011;13509;50.760;6.080;2023-07-16T09:41:46;4.13;;;3.10;;
9080;SDS011;13509;50.760;6.080;2023-07-16T09:44:15;5.00;;;2.88;;
9080;SDS011;13509;50.760;6.080;2023-07-16T09:46:45;3.65;;;2.88;;
9080;SDS011;13509;50.760;6.080;2023-07-16T09:49:14;4.47;;;3.03;;
9080;SDS011;13509;50.760;6.080;2023-07-16T09:51:43;4.30;;;3.00;;
9080;SDS011;13509;50.760;6.080;2023-07-16T09:54:12;4.32;;;2.60;;
9080;SDS011;13509;50.760;6.080;2023-07-16T09:56:41;4.55;;;3.25;;
9080;SDS011;13509;50.760;6.080;2023-07-16T09:59:12;9.00;;;2.90;;
9080;SDS011;13509;50.760;6.080;2023-07-16T10:01:41;4.38;;;2.90;;
9080;SDS011;13509;50.760;6.080;2023-07-16T10:04:13;6.13;;;3.22;;
9080;SDS011;13509;50.760;6.080;2023-07-16T10:06:52;4.60;;;2.88;;
9080;SDS011;13509;50.760;6.080;2023-07-16T10:09:36;5.72;;;3.00;;
9080;SDS011;13509;50.760;6.080;2023-07-16T10:12:10;4.40;;;2.88;;
9080;SDS011;13509;50.760;6.080;2023-07-16T10:14:39;4.50;;;2.92;;
9080;SDS011;13509;50.760;6.080;2023-07-16T10:17:07;5.47;;;2.72;;
9080;SDS011;13509;50.760;6.080;2023-07-16T10:19:47;4.38;;;2.83;;
9080;SDS011;13509;50.760;6.080;2023-07-16T10:22:17;4.70;;;2.70;;
9080;SDS011;13509;50.760;6.080;2023-07-16T10:24:50;4.88;;;3.13;;
9080;SDS011;13509;50.760;6.080;2023-07-16T10:27:32;3.83;;;2.97;;
9080;SDS011;13509;50.760;6.080;2023-07-16T10:30:00;4.80;;;2.80;;
9080;SDS011;13509;50.760;6.080;2023-07-16T10:32:31;5.45;;;3.28;;
9080;SDS011;13509;50.760;6.080;2023-07-16T10:35:01;5.18;;;2.58;;
9080;SDS011;13509;50.760;6.080;2023-07-16T10:37:30;7.10;;;3.20;;
9080;SDS011;13509;50.760;6.080;2023-07-16T10:39:59;4.55;;;3.15;;
9080;SDS011;13509;50.760;6.080;2023-07-16T10:42:27;5.70;;;3.03;;
9080;SDS011;13509;50.760;6.080;2023-07-16T10:44:57;10.43;;;3.20;;
9080;SDS011;13509;50.760;6.080;2023-07-16T10:47:29;6.30;;;3.10;;
9080;SDS011;13509;50.760;6.080;2023-07-16T10:49:58;4.23;;;3.20;;
9080;SDS011;13509;50.760;6.080;2023-07-16T10:52:27;5.37;;;3.23;;
9080;SDS011;13509;50.760;6.080;2023-07-16T10:54:56;4.97;;;3.23;;
9080;SDS011;13509;50.760;6.080;2023-07-16T10:57:25;6.43;;;3.20;;
9080;SDS011;13509;50.760;6.080;2023-07-16T10:59:54;8.93;;;3.60;;
9080;SDS011;13509;50.760;6.080;2023-07-16T11:02:22;7.00;;;3.20;;
9080;SDS011;13509;50.760;6.080;2023-07-16T11:04:51;5.30;;;3.47;;
9080;SDS011;13509;50.760;6.080;2023-07-16T11:07:20;7.07;;;4.00;;
9080;SDS011;13509;50.760;6.080;2023-07-16T11:09:50;6.60;;;3.93;;
9080;SDS011;13509;50.760;6.080;2023-07-16T11:12:20;10.40;;;5.60;;
9080;SDS011;13509;50.760;6.080;2023-07-16T11:14:49;11.40;;;5.83;;
9080;SDS011;13509;50.760;6.080;2023-07-16T11:17:18;6.10;;;3.30;;
9080;SDS011;13509;50.760;6.080;2023-07-16T11:19:49;5.57;;;3.00;;
9080;SDS011;13509;50.760;6.080;2023-07-16T11:22:18;6.17;;;3.47;;
9080;SDS011;13509;50.760;6.080;2023-07-16T11:24:47;6.80;;;3.90;;
9080;SDS011;13509;50.760;6.080;2023-07-16T11:27:17;4.90;;;2.83;;
9080;SDS011;13509;50.760;6.080;2023-07-16T11:29:46;4.37;;;3.13;;
9080;SDS011;13509;50.760;6.080;2023-07-16T11:32:25;6.47;;;3.70;;
9080;SDS011;13509;50.760;6.080;2023-07-16T11:34:54;5.67;;;3.40;;
9080;SDS011;13509;50.760;6.080;2023-07-16T11:37:24;7.47;;;3.30;;
9080;SDS011;13509;50.760;6.080;2023-07-16T11:39:54;7.27;;;3.13;;
9080;SDS011;13509;50.760;6.080;2023-07-16T11:42:27;5.40;;;3.80;;
9080;SDS011;13509;50.760;6.080;2023-07-16T11:44:56;6.87;;;3.67;;
9080;SDS011;13509;50.760;6.080;2023-07-16T11:47:24;5.30;;;3.43;;
9080;SDS011;13509;50.760;6.080;2023-07-16T11:49:53;6.77;;;3.10;;
9080;SDS011;13509;50.760;6.080;2023-07-16T11:52:22;4.17;;;3.07;;
9080;SDS011;13509;50.760;6.080;2023-07-16T11:54:51;4.67;;;3.03;;
9080;SDS011;13509;50.760;6.080;2023-07-16T11:57:19;6.50;;;2.90;;
9080;SDS011;13509;50.760;6.080;2023-07-16T11:59:49;5.27;;;2.93;;
9080;SDS011;13509;50.760;6.080;2023-07-16T12:02:17;3.90;;;2.97;;
9080;SDS011;13509;50.760;6.080;2023-07-16T12:04:45;5.97;;;3.20;;
9080;SDS011;13509;50.760;6.080;2023-07-16T12:07:13;6.13;;;3.10;;
9080;SDS011;13509;50.760;6.080;2023-07-16T12:09:42;8.80;;;3.30;;
9080;SDS011;13509;50.760;6.080;2023-07-16T12:12:10;5.90;;;2.93;;
9080;SDS011;13509;50.760;6.080;2023-07-16T12:14:38;8.37;;;3.30;;
9080;SDS011;13509;50.760;6.080;2023-07-16T12:17:08;4.50;;;3.07;;
9080;SDS011;13509;50.760;6.080;2023-07-16T12:19:36;4.27;;;3.33;;
9080;SDS011;13509;50.760;6.080;2023-07-16T12:22:04;3.93;;;2.50;;
9080;SDS011;13509;50.760;6.080;2023-07-16T12:24:33;4.43;;;2.90;;
9080;SDS011;13509;50.760;6.080;2023-07-16T12:27:01;5.20;;;2.87;;
9080;SDS011;13509;50.760;6.080;2023-07-16T12:29:29;3.70;;;2.50;;
9080;SDS011;13509;50.760;6.080;2023-07-16T12:31:57;4.47;;;2.53;;
9080;SDS011;13509;50.760;6.080;2023-07-16T12:34:27;4.63;;;2.30;;
9080;SDS011;13509;50.760;6.080;2023-07-16T12:36:55;4.87;;;2.47;;
9080;SDS011;13509;50.760;6.080;2023-07-16T12:39:24;4.07;;;2.60;;
9080;SDS011;13509;50.760;6.080;2023-07-16T12:41:53;6.30;;;2.77;;
9080;SDS011;13509;50.760;6.080;2023-07-16T12:44:21;4.40;;;2.70;;
9080;SDS011;13509;50.760;6.080;2023-07-16T12:46:49;4.53;;;2.57;;
9080;SDS011;13509;50.760;6.080;2023-07-16T12:49:19;5.10;;;2.70;;
9080;SDS011;13509;50.760;6.080;2023-07-16T12:51:48;6.83;;;2.63;;
9080;SDS011;13509;50.760;6.080;2023-07-16T12:54:17;4.87;;;2.80;;
9080;SDS011;13509;50.760;6.080;2023-07-16T12:56:45;6.80;;;3.10;;
9080;SDS011;13509;50.760;6.080;2023-07-16T12:59:13;3.33;;;2.37;;
9080;SDS011;13509;50.760;6.080;2023-07-16T13:01:42;4.43;;;2.73;;
9080;SDS011;13509;50.760;6.080;2023-07-16T13:04:10;7.13;;;3.13;;
9080;SDS011;13509;50.760;6.080;2023-07-16T13:06:38;5.60;;;2.87;;
9080;SDS011;13509;50.760;6.080;2023-07-16T13:09:08;4.37;;;3.00;;
9080;SDS011;13509;50.760;6.080;2023-07-16T13:11:36;5.73;;;2.83;;
9080;SDS011;13509;50.760;6.080;2023-07-16T13:14:05;5.23;;;3.10;;
9080;SDS011;13509;50.760;6.080;2023-07-16T13:16:33;6.23;;;2.60;;
9080;SDS011;13509;50.760;6.080;2023-07-16T13:19:01;6.70;;;3.17;;
9080;SDS011;13509;50.760;6.080;2023-07-16T13:21:30;5.60;;;2.80;;
9080;SDS011;13509;50.760;6.080;2023-07-16T13:23:58;5.93;;;2.90;;
9080;SDS011;13509;50.760;6.080;2023-07-16T13:26:27;4.10;;;2.60;;
9080;SDS011;13509;50.760;6.080;2023-07-16T13:28:56;4.63;;;3.03;;
9080;SDS011;13509;50.760;6.080;2023-07-16T13:31:24;3.93;;;2.77;;
9080;SDS011;13509;50.760;6.080;2023-07-16T13:33:52;5.17;;;2.77;;
9080;SDS011;13509;50.760;6.080;2023-07-16T13:36:20;7.50;;;2.67;;
9080;SDS011;13509;50.760;6.080;2023-07-16T13:38:49;5.17;;;2.40;;
9080;SDS011;13509;50.760;6.080;2023-07-16T13:41:17;4.53;;;2.77;;
9080;SDS011;13509;50.760;6.080;2023-07-16T13:43:47;3.87;;;2.60;;
9080;SDS011;13509;50.760;6.080;2023-07-16T13:46:15;4.77;;;3.03;;
9080;SDS011;13509;50.760;6.080;2023-07-16T13:48:43;5.07;;;2.83;;
9080;SDS011;13509;50.760;6.080;2023-07-16T13:51:24;3.53;;;2.40;;
9080;SDS011;13509;50.760;6.080;2023-07-16T13:53:52;6.43;;;2.93;;
9080;SDS011;13509;50.760;6.080;2023-07-16T13:56:20;3.97;;;2.70;;
9080;SDS011;13509;50.760;6.080;2023-07-16T13:58:50;5.30;;;2.80;;
9080;SDS011;13509;50.760;6.080;2023-07-16T14:01:21;5.13;;;2.63;;
9080;SDS011;13509;50.760;6.080;2023-07-16T14:03:49;4.90;;;2.83;;
9080;SDS011;13509;50.760;6.080;2023-07-16T14:06:19;6.57;;;3.13;;
9080;SDS011;13509;50.760;6.080;2023-07-16T14:08:47;3.03;;;2.47;;
9080;SDS011;13509;50.760;6.080;2023-07-16T14:11:15;4.40;;;3.13;;
9080;SDS011;13509;50.760;6.080;2023-07-16T14:13:44;5.77;;;2.43;;
9080;SDS011;13509;50.760;6.080;2023-07-16T14:16:15;3.00;;;2.30;;
9080;SDS011;13509;50.760;6.080;2023-07-16T14:18:44;3.53;;;2.23;;
9080;SDS011;13509;50.760;6.080;2023-07-16T14:21:12;3.47;;;2.43;;
9080;SDS011;13509;50.760;6.080;2023-07-16T14:23:41;4.00;;;2.70;;
9080;SDS011;13509;50.760;6.080;2023-07-16T14:26:09;6.17;;;2.53;;
9080;SDS011;13509;50.760;6.080;2023-07-16T14:28:38;4.37;;;2.70;;
9080;SDS011;13509;50.760;6.080;2023-07-16T14:31:06;3.90;;;2.70;;
9080;SDS011;13509;50.760;6.080;2023-07-16T14:33:36;4.40;;;2.20;;
9080;SDS011;13509;50.760;6.080;2023-07-16T14:36:05;4.20;;;2.50;;
9080;SDS011;13509;50.760;6.080;2023-07-16T14:38:33;4.50;;;2.57;;
9080;SDS011;13509;50.760;6.080;2023-07-16T14:41:01;6.73;;;2.60;;
9080;SDS011;13509;50.760;6.080;2023-07-16T14:43:30;4.73;;;3.17;;
9080;SDS011;13509;50.760;6.080;2023-07-16T14:45:59;5.77;;;3.20;;
9080;SDS011;13509;50.760;6.080;2023-07-16T14:48:27;5.83;;;3.17;;
9080;SDS011;13509;50.760;6.080;2023-07-16T14:50:57;5.13;;;2.83;;
9080;SDS011;13509;50.760;6.080;2023-07-16T14:53:25;5.03;;;2.90;;
9080;SDS011;13509;50.760;6.080;2023-07-16T14:55:53;3.90;;;2.90;;
9080;SDS011;13509;50.760;6.080;2023-07-16T14:58:22;5.30;;;2.87;;
9080;SDS011;13509;50.760;6.080;2023-07-16T15:00:51;4.47;;;2.93;;
9080;SDS011;13509;50.760;6.080;2023-07-16T15:03:20;5.23;;;3.07;;
9080;SDS011;13509;50.760;6.080;2023-07-16T15:05:48;4.63;;;2.60;;
9080;SDS011;13509;50.760;6.080;2023-07-16T15:08:18;9.37;;;3.20;;
9080;SDS011;13509;50.760;6.080;2023-07-16T15:10:46;6.23;;;2.97;;